sensor_id;sensor_type;location;lat;lon;timestamp;pressure;altitude;pressure_sealevel;temperature;humidity
65280;BME280;51878;55.748;48.742;2022-07-10T00:00:46;98993.56;;;16.80;93.79
65280;BME280;51878;55.748;48.742;2022-07-10T00:03:13;99009.75;;;16.93;93.43
65280;BME280;51878;55.748;48.742;2022-07-10T00:05:41;99016.16;;;16.99;93.65
65280;BME280;51878;55.748;48.742;2022-07-10T00:08:08;99019.59;;;17.06;93.14
65280;BME280;51878;55.748;48.742;2022-07-10T00:10:35;99054.38;;;17.29;93.00
65280;BME280;51878;55.748;48.742;2022-07-10T00:13:03;99060.91;;;17.28;92.85
65280;BME280;51878;55.748;48.742;2022-07-10T00:15:30;99059.28;;;17.27;92.86
65280;BME280;51878;55.748;48.742;2022-07-10T00:17:59;99055.09;;;17.25;92.80
65280;BME280;51878;55.748;48.742;2022-07-10T00:20:26;99049.97;;;17.28;92.68
65280;BME280;51878;55.748;48.742;2022-07-10T00:22:53;99069.13;;;17.52;91.42
65280;BME280;51878;55.748;48.742;2022-07-10T00:25:26;99053.03;;;17.55;90.00
65280;BME280;51878;55.748;48.742;2022-07-10T00:27:53;99067.38;;;17.74;89.22
65280;BME280;51878;55.748;48.742;2022-07-10T00:30:20;99072.41;;;17.77;89.36
65280;BME280;51878;55.748;48.742;2022-07-10T00:32:47;99027.25;;;17.56;89.25
65280;BME280;51878;55.748;48.742;2022-07-10T00:35:14;99008.72;;;17.47;88.68
65280;BME280;51878;55.748;48.742;2022-07-10T00:37:41;99070.63;;;17.83;89.24
65280;BME280;51878;55.748;48.742;2022-07-10T00:40:09;99082.19;;;17.85;89.86
65280;BME280;51878;55.748;48.742;2022-07-10T00:42:36;99056.50;;;17.51;91.30
65280;BME280;51878;55.748;48.742;2022-07-10T00:45:04;99060.34;;;17.38;91.87
65280;BME280;51878;55.748;48.742;2022-07-10T00:47:34;99085.44;;;17.59;92.44
65280;BME280;51878;55.748;48.742;2022-07-10T00:50:01;99088.84;;;17.77;91.71
65280;BME280;51878;55.748;48.742;2022-07-10T00:52:29;98957.59;;;16.88;91.29
65280;BME280;51878;55.748;48.742;2022-07-10T00:54:57;99040.56;;;17.36;92.52
65280;BME280;51878;55.748;48.742;2022-07-10T00:57:24;99065.31;;;17.41;92.57
65280;BME280;51878;55.748;48.742;2022-07-10T00:59:51;99079.84;;;17.53;92.50
65280;BME280;51878;55.748;48.742;2022-07-10T01:02:19;99045.34;;;17.29;92.84
65280;BME280;51878;55.748;48.742;2022-07-10T01:04:47;99081.63;;;17.48;93.20
65280;BME280;51878;55.748;48.742;2022-07-10T01:07:15;99085.19;;;17.60;92.63
65280;BME280;51878;55.748;48.742;2022-07-10T01:09:43;99078.63;;;17.61;92.49
65280;BME280;51878;55.748;48.742;2022-07-10T01:12:11;99065.19;;;17.48;92.36
65280;BME280;51878;55.748;48.742;2022-07-10T01:14:40;99092.69;;;17.65;92.74
65280;BME280;51878;55.748;48.742;2022-07-10T01:17:08;99033.53;;;17.40;92.28
65280;BME280;51878;55.748;48.742;2022-07-10T01:19:36;99050.75;;;17.52;92.12
65280;BME280;51878;55.748;48.742;2022-07-10T01:22:03;99069.00;;;17.35;93.11
65280;BME280;51878;55.748;48.742;2022-07-10T01:24:31;99103.56;;;17.48;93.41
65280;BME280;51878;55.748;48.742;2022-07-10T01:26:58;99055.84;;;17.20;93.96
65280;BME280;51878;55.748;48.742;2022-07-10T01:29:25;99109.31;;;17.46;94.75
65280;BME280;51878;55.748;48.742;2022-07-10T01:31:52;99069.50;;;17.32;93.88
65280;BME280;51878;55.748;48.742;2022-07-10T01:34:23;99113.69;;;17.59;93.95
65280;BME280;51878;55.748;48.742;2022-07-10T01:36:50;99077.59;;;17.39;93.72
65280;BME280;51878;55.748;48.742;2022-07-10T01:39:17;99077.38;;;17.40;94.41
65280;BME280;51878;55.748;48.742;2022-07-10T01:41:45;99072.09;;;17.50;93.63
65280;BME280;51878;55.748;48.742;2022-07-10T01:44:12;99104.50;;;17.77;92.84
65280;BME280;51878;55.748;48.742;2022-07-10T01:46:43;99056.97;;;17.60;92.23
65280;BME280;51878;55.748;48.742;2022-07-10T01:49:12;99108.25;;;18.00;91.76
65280;BME280;51878;55.748;48.742;2022-07-10T01:51:39;99101.53;;;18.07;91.39
65280;BME280;51878;55.748;48.742;2022-07-10T01:54:06;99069.50;;;17.96;90.99
65280;BME280;51878;55.748;48.742;2022-07-10T01:56:33;99091.16;;;18.09;90.68
65280;BME280;51878;55.748;48.742;2022-07-10T01:59:01;99094.34;;;18.18;90.75
65280;BME280;51878;55.748;48.742;2022-07-10T02:01:30;99060.88;;;18.04;90.57
65280;BME280;51878;55.748;48.742;2022-07-10T02:03:58;99083.81;;;18.27;89.26
65280;BME280;51878;55.748;48.742;2022-07-10T02:06:43;99085.81;;;18.31;88.67
65280;BME280;51878;55.748;48.742;2022-07-10T02:09:11;99047.25;;;18.09;88.79
65280;BME280;51878;55.748;48.742;2022-07-10T02:11:38;99062.00;;;18.20;88.85
65280;BME280;51878;55.748;48.742;2022-07-10T02:14:06;99069.44;;;18.36;88.41
65280;BME280;51878;55.748;48.742;2022-07-10T02:16:35;99081.25;;;18.54;88.06
65280;BME280;51878;55.748;48.742;2022-07-10T02:19:03;99089.03;;;18.74;86.54
65280;BME280;51878;55.748;48.742;2022-07-10T02:21:30;99050.56;;;18.40;86.91
65280;BME280;51878;55.748;48.742;2022-07-10T02:23:57;99087.59;;;18.71;86.49
65280;BME280;51878;55.748;48.742;2022-07-10T02:26:24;99090.63;;;18.87;86.46
65280;BME280;51878;55.748;48.742;2022-07-10T02:28:51;99087.41;;;18.90;85.77
65280;BME280;51878;55.748;48.742;2022-07-10T02:31:18;99101.28;;;19.00;85.80
65280;BME280;51878;55.748;48.742;2022-07-10T02:33:46;99081.31;;;19.05;85.76
65280;BME280;51878;55.748;48.742;2022-07-10T02:36:13;99071.75;;;19.07;85.51
65280;BME280;51878;55.748;48.742;2022-07-10T02:38:40;99059.13;;;19.11;85.33
65280;BME280;51878;55.748;48.742;2022-07-10T02:41:07;99091.25;;;19.45;84.93
65280;BME280;51878;55.748;48.742;2022-07-10T02:43:35;99049.53;;;19.31;84.84
65280;BME280;51878;55.748;48.742;2022-07-10T02:46:02;99060.53;;;19.53;84.95
65280;BME280;51878;55.748;48.742;2022-07-10T02:48:29;99068.59;;;19.76;84.32
65280;BME280;51878;55.748;48.742;2022-07-10T02:50:57;99043.03;;;19.59;84.19
65280;BME280;51878;55.748;48.742;2022-07-10T02:53:24;99073.31;;;20.03;83.12
65280;BME280;51878;55.748;48.742;2022-07-10T02:55:51;99071.03;;;20.22;81.41
65280;BME280;51878;55.748;48.742;2022-07-10T02:58:18;99039.50;;;20.08;80.72
65280;BME280;51878;55.748;48.742;2022-07-10T03:00:46;99122.06;;;20.57;81.15
65280;BME280;51878;55.748;48.742;2022-07-10T03:03:13;99106.66;;;20.34;80.57
65280;BME280;51878;55.748;48.742;2022-07-10T03:05:40;99074.25;;;20.14;80.75
65280;BME280;51878;55.748;48.742;2022-07-10T03:08:07;99120.06;;;20.52;80.32
65280;BME280;51878;55.748;48.742;2022-07-10T03:10:35;99080.25;;;20.33;79.22
65280;BME280;51878;55.748;48.742;2022-07-10T03:13:02;99082.41;;;20.31;79.46
65280;BME280;51878;55.748;48.742;2022-07-10T03:15:29;99115.81;;;20.61;79.22
65280;BME280;51878;55.748;48.742;2022-07-10T03:17:56;99100.81;;;20.79;77.82
65280;BME280;51878;55.748;48.742;2022-07-10T03:20:24;99099.03;;;21.00;77.05
65280;BME280;51878;55.748;48.742;2022-07-10T03:22:51;99116.69;;;20.99;78.20
65280;BME280;51878;55.748;48.742;2022-07-10T03:25:18;99081.81;;;20.83;77.80
65280;BME280;51878;55.748;48.742;2022-07-10T03:27:45;99113.94;;;20.99;78.25
65280;BME280;51878;55.748;48.742;2022-07-10T03:30:12;99113.31;;;20.92;78.11
65280;BME280;51878;55.748;48.742;2022-07-10T03:32:40;99091.75;;;20.84;77.87
65280;BME280;51878;55.748;48.742;2022-07-10T03:35:07;99080.78;;;20.94;76.54
65280;BME280;51878;55.748;48.742;2022-07-10T03:37:34;99098.56;;;21.09;76.16
65280;BME280;51878;55.748;48.742;2022-07-10T03:40:01;99074.22;;;21.00;76.20
65280;BME280;51878;55.748;48.742;2022-07-10T03:42:29;99119.94;;;21.29;76.12
65280;BME280;51878;55.748;48.742;2022-07-10T03:44:56;99057.22;;;21.09;75.74
65280;BME280;51878;55.748;48.742;2022-07-10T03:47:23;99120.41;;;21.53;75.05
65280;BME280;51878;55.748;48.742;2022-07-10T03:49:50;99101.66;;;21.55;74.75
65280;BME280;51878;55.748;48.742;2022-07-10T03:52:17;99098.88;;;21.50;75.44
65280;BME280;51878;55.748;48.742;2022-07-10T03:54:44;99129.34;;;21.70;76.95
65280;BME280;51878;55.748;48.742;2022-07-10T03:57:28;99100.53;;;21.56;78.16
65280;BME280;51878;55.748;48.742;2022-07-10T04:00:14;99115.88;;;21.89;75.94
65280;BME280;51878;55.748;48.742;2022-07-10T04:02:41;99100.06;;;21.69;76.75
65280;BME280;51878;55.748;48.742;2022-07-10T04:05:09;99108.63;;;21.67;75.83
65280;BME280;51878;55.748;48.742;2022-07-10T04:07:36;99127.41;;;21.76;76.26
65280;BME280;51878;55.748;48.742;2022-07-10T04:10:04;99073.00;;;21.61;77.06
65280;BME280;51878;55.748;48.742;2022-07-10T04:12:32;99083.38;;;21.43;77.86
65280;BME280;51878;55.748;48.742;2022-07-10T04:14:59;99100.03;;;21.59;76.58
65280;BME280;51878;55.748;48.742;2022-07-10T04:17:29;99122.47;;;21.78;77.24
65280;BME280;51878;55.748;48.742;2022-07-10T04:20:00;99118.06;;;21.87;76.03
65280;BME280;51878;55.748;48.742;2022-07-10T04:22:29;99097.69;;;21.93;75.53
65280;BME280;51878;55.748;48.742;2022-07-10T04:24:56;99084.63;;;21.73;76.24
65280;BME280;51878;55.748;48.742;2022-07-10T04:27:23;99110.09;;;21.91;76.70
65280;BME280;51878;55.748;48.742;2022-07-10T04:29:50;99084.78;;;22.14;76.30
65280;BME280;51878;55.748;48.742;2022-07-10T04:32:36;99132.91;;;22.28;76.43
65280;BME280;51878;55.748;48.742;2022-07-10T04:35:04;99080.28;;;21.87;77.60
65280;BME280;51878;55.748;48.742;2022-07-10T04:37:31;99130.47;;;22.47;76.93
65280;BME280;51878;55.748;48.742;2022-07-10T04:39:58;99133.41;;;22.20;78.27
65280;BME280;51878;55.748;48.742;2022-07-10T04:42:25;99099.78;;;22.39;76.28
65280;BME280;51878;55.748;48.742;2022-07-10T04:44:53;99095.66;;;21.68;76.35
65280;BME280;51878;55.748;48.742;2022-07-10T04:47:20;99104.28;;;21.39;78.39
65280;BME280;51878;55.748;48.742;2022-07-10T04:49:47;99097.63;;;21.30;79.49
65280;BME280;51878;55.748;48.742;2022-07-10T04:52:14;99116.28;;;21.60;78.70
65280;BME280;51878;55.748;48.742;2022-07-10T04:54:42;99120.81;;;21.82;77.95
65280;BME280;51878;55.748;48.742;2022-07-10T04:57:09;99090.88;;;21.53;78.24
65280;BME280;51878;55.748;48.742;2022-07-10T04:59:36;99092.81;;;21.58;78.02
65280;BME280;51878;55.748;48.742;2022-07-10T05:02:03;99092.81;;;21.58;78.02
65280;BME280;51878;55.748;48.742;2022-07-10T05:04:31;99125.13;;;21.62;77.96
65280;BME280;51878;55.748;48.742;2022-07-10T05:06:58;99099.09;;;21.43;77.53
65280;BME280;51878;55.748;48.742;2022-07-10T05:09:25;99125.75;;;21.75;77.18
65280;BME280;51878;55.748;48.742;2022-07-10T05:11:52;99133.00;;;21.86;77.34
65280;BME280;51878;55.748;48.742;2022-07-10T05:14:19;99103.06;;;21.62;77.32
65280;BME280;51878;55.748;48.742;2022-07-10T05:16:46;99096.72;;;21.67;77.07
65280;BME280;51878;55.748;48.742;2022-07-10T05:19:13;99090.69;;;21.70;76.11
65280;BME280;51878;55.748;48.742;2022-07-10T05:21:40;99007.69;;;21.29;75.89
65280;BME280;51878;55.748;48.742;2022-07-10T05:24:08;99124.78;;;22.06;75.78
65280;BME280;51878;55.748;48.742;2022-07-10T05:26:35;99088.88;;;21.96;73.72
65280;BME280;51878;55.748;48.742;2022-07-10T05:29:03;99095.75;;;21.94;74.29
65280;BME280;51878;55.748;48.742;2022-07-10T05:31:30;99099.41;;;22.10;72.99
65280;BME280;51878;55.748;48.742;2022-07-10T05:33:57;99125.75;;;22.38;70.67
65280;BME280;51878;55.748;48.742;2022-07-10T05:36:24;99064.97;;;22.22;68.97
65280;BME280;51878;55.748;48.742;2022-07-10T05:38:51;99111.97;;;22.68;68.83
65280;BME280;51878;55.748;48.742;2022-07-10T05:41:18;99085.75;;;22.92;68.04
65280;BME280;51878;55.748;48.742;2022-07-10T05:43:46;99087.13;;;22.79;68.83
65280;BME280;51878;55.748;48.742;2022-07-10T05:46:13;99122.53;;;23.38;66.71
65280;BME280;51878;55.748;48.742;2022-07-10T05:48:40;99106.72;;;23.59;65.80
65280;BME280;51878;55.748;48.742;2022-07-10T05:51:07;99088.38;;;23.84;65.60
65280;BME280;51878;55.748;48.742;2022-07-10T05:53:54;99126.59;;;24.52;62.09
65280;BME280;51878;55.748;48.742;2022-07-10T05:56:21;99114.63;;;24.96;57.58
65280;BME280;51878;55.748;48.742;2022-07-10T05:58:48;99085.13;;;25.05;56.42
65280;BME280;51878;55.748;48.742;2022-07-10T06:01:16;99117.69;;;24.94;56.75
65280;BME280;51878;55.748;48.742;2022-07-10T06:03:44;99074.72;;;24.92;56.71
65280;BME280;51878;55.748;48.742;2022-07-10T06:06:12;99117.19;;;25.22;55.58
65280;BME280;51878;55.748;48.742;2022-07-10T06:08:43;99082.09;;;25.36;55.14
65280;BME280;51878;55.748;48.742;2022-07-10T06:11:11;99127.34;;;25.90;53.97
65280;BME280;51878;55.748;48.742;2022-07-10T06:13:39;99118.72;;;25.38;53.08
65280;BME280;51878;55.748;48.742;2022-07-10T06:16:06;99046.63;;;25.28;52.82
65280;BME280;51878;55.748;48.742;2022-07-10T06:18:33;99122.69;;;25.56;53.23
65280;BME280;51878;55.748;48.742;2022-07-10T06:21:01;99134.22;;;26.16;51.64
65280;BME280;51878;55.748;48.742;2022-07-10T06:23:29;99094.97;;;26.42;48.93
65280;BME280;51878;55.748;48.742;2022-07-10T06:25:56;99131.41;;;26.41;49.57
65280;BME280;51878;55.748;48.742;2022-07-10T06:28:23;99115.75;;;26.69;50.10
65280;BME280;51878;55.748;48.742;2022-07-10T06:30:51;99093.16;;;26.51;51.06
65280;BME280;51878;55.748;48.742;2022-07-10T06:33:23;99089.41;;;27.59;49.46
65280;BME280;51878;55.748;48.742;2022-07-10T06:35:50;99117.59;;;28.27;46.60
65280;BME280;51878;55.748;48.742;2022-07-10T06:38:17;99087.38;;;27.79;46.50
65280;BME280;51878;55.748;48.742;2022-07-10T06:40:45;99052.59;;;27.76;45.59
65280;BME280;51878;55.748;48.742;2022-07-10T06:43:14;99129.00;;;28.03;46.89
65280;BME280;51878;55.748;48.742;2022-07-10T06:45:41;99139.44;;;28.75;45.96
65280;BME280;51878;55.748;48.742;2022-07-10T06:48:08;99133.41;;;29.81;43.34
65280;BME280;51878;55.748;48.742;2022-07-10T06:50:36;99132.50;;;31.13;41.51
65280;BME280;51878;55.748;48.742;2022-07-10T06:53:03;99145.84;;;31.42;39.36
65280;BME280;51878;55.748;48.742;2022-07-10T06:55:31;99140.38;;;32.01;38.32
65280;BME280;51878;55.748;48.742;2022-07-10T06:57:59;99110.38;;;29.75;42.49
65280;BME280;51878;55.748;48.742;2022-07-10T07:00:26;99115.75;;;31.77;37.70
65280;BME280;51878;55.748;48.742;2022-07-10T07:02:53;99142.38;;;31.36;37.06
65280;BME280;51878;55.748;48.742;2022-07-10T07:05:21;99108.03;;;30.08;39.34
65280;BME280;51878;55.748;48.742;2022-07-10T07:07:48;99158.50;;;30.43;38.82
65280;BME280;51878;55.748;48.742;2022-07-10T07:10:15;99116.06;;;30.01;39.49
65280;BME280;51878;55.748;48.742;2022-07-10T07:12:42;99155.16;;;31.72;36.80
65280;BME280;51878;55.748;48.742;2022-07-10T07:15:10;99121.78;;;30.80;37.40
65280;BME280;51878;55.748;48.742;2022-07-10T07:17:40;99121.94;;;31.36;36.99
65280;BME280;51878;55.748;48.742;2022-07-10T07:20:26;99120.41;;;34.85;32.63
65280;BME280;51878;55.748;48.742;2022-07-10T07:23:12;99169.88;;;33.96;32.00
65280;BME280;51878;55.748;48.742;2022-07-10T07:25:40;99144.50;;;35.67;29.09
65280;BME280;51878;55.748;48.742;2022-07-10T07:28:17;99145.25;;;37.80;26.72
65280;BME280;51878;55.748;48.742;2022-07-10T07:30:48;99156.59;;;37.18;26.74
65280;BME280;51878;55.748;48.742;2022-07-10T07:33:16;99131.84;;;35.61;28.73
65280;BME280;51878;55.748;48.742;2022-07-10T07:35:43;99119.47;;;36.29;28.18
65280;BME280;51878;55.748;48.742;2022-07-10T07:38:13;99157.97;;;38.93;24.36
65280;BME280;51878;55.748;48.742;2022-07-10T07:40:40;99148.78;;;38.19;24.87
65280;BME280;51878;55.748;48.742;2022-07-10T07:43:08;99160.03;;;38.65;24.08
65280;BME280;51878;55.748;48.742;2022-07-10T07:45:35;99129.84;;;38.23;23.73
65280;BME280;51878;55.748;48.742;2022-07-10T07:48:03;99178.09;;;38.31;24.00
65280;BME280;51878;55.748;48.742;2022-07-10T07:50:35;99097.88;;;35.42;28.82
65280;BME280;51878;55.748;48.742;2022-07-10T07:53:04;99126.38;;;34.43;28.58
65280;BME280;51878;55.748;48.742;2022-07-10T07:55:35;99152.00;;;37.33;25.43
65280;BME280;51878;55.748;48.742;2022-07-10T07:58:03;99157.97;;;36.37;26.76
65280;BME280;51878;55.748;48.742;2022-07-10T08:00:31;99170.50;;;37.89;25.08
65280;BME280;51878;55.748;48.742;2022-07-10T08:02:58;99166.56;;;39.30;23.03
65280;BME280;51878;55.748;48.742;2022-07-10T08:05:28;99148.81;;;39.74;21.82
65280;BME280;51878;55.748;48.742;2022-07-10T08:07:57;99178.69;;;41.16;21.32
65280;BME280;51878;55.748;48.742;2022-07-10T08:10:26;99145.84;;;40.56;21.58
65280;BME280;51878;55.748;48.742;2022-07-10T08:12:54;99160.78;;;38.62;23.59
65280;BME280;51878;55.748;48.742;2022-07-10T08:15:22;99133.75;;;40.15;21.37
65280;BME280;51878;55.748;48.742;2022-07-10T08:17:51;99147.47;;;40.57;21.35
65280;BME280;51878;55.748;48.742;2022-07-10T08:20:18;99157.84;;;40.91;20.90
65280;BME280;51878;55.748;48.742;2022-07-10T08:22:46;99135.16;;;41.12;20.94
65280;BME280;51878;55.748;48.742;2022-07-10T08:25:18;99136.16;;;39.64;22.48
65280;BME280;51878;55.748;48.742;2022-07-10T08:27:46;99179.81;;;41.01;20.31
65280;BME280;51878;55.748;48.742;2022-07-10T08:30:13;99177.91;;;41.23;20.54
65280;BME280;51878;55.748;48.742;2022-07-10T08:32:40;99143.41;;;40.58;20.68
65280;BME280;51878;55.748;48.742;2022-07-10T08:35:09;99164.03;;;41.10;20.51
65280;BME280;51878;55.748;48.742;2022-07-10T08:37:41;99148.44;;;39.79;21.84
65280;BME280;51878;55.748;48.742;2022-07-10T08:40:09;99158.94;;;39.38;22.28
65280;BME280;51878;55.748;48.742;2022-07-10T08:42:37;99170.31;;;36.13;28.54
65280;BME280;51878;55.748;48.742;2022-07-10T08:45:05;99125.28;;;35.13;30.24
65280;BME280;51878;55.748;48.742;2022-07-10T08:47:37;99180.03;;;32.29;35.75
65280;BME280;51878;55.748;48.742;2022-07-10T08:50:15;99098.16;;;35.08;31.40
65280;BME280;51878;55.748;48.742;2022-07-10T08:52:48;99086.22;;;36.23;29.15
65280;BME280;51878;55.748;48.742;2022-07-10T08:55:25;99168.78;;;38.83;26.12
65280;BME280;51878;55.748;48.742;2022-07-10T08:57:54;99170.56;;;37.11;27.48
65280;BME280;51878;55.748;48.742;2022-07-10T09:00:23;99160.53;;;36.43;29.72
65280;BME280;51878;55.748;48.742;2022-07-10T09:02:53;99180.13;;;34.63;32.08
65280;BME280;51878;55.748;48.742;2022-07-10T09:05:21;99177.66;;;34.24;33.08
65280;BME280;51878;55.748;48.742;2022-07-10T09:07:48;99153.63;;;32.51;35.36
65280;BME280;51878;55.748;48.742;2022-07-10T09:10:15;99178.59;;;32.74;35.35
65280;BME280;51878;55.748;48.742;2022-07-10T09:12:50;99114.34;;;32.51;34.86
65280;BME280;51878;55.748;48.742;2022-07-10T09:15:19;99173.91;;;35.38;33.11
65280;BME280;51878;55.748;48.742;2022-07-10T09:17:54;99135.28;;;37.05;29.27
65280;BME280;51878;55.748;48.742;2022-07-10T09:20:26;99177.56;;;37.79;28.45
65280;BME280;51878;55.748;48.742;2022-07-10T09:22:53;99171.88;;;36.97;28.54
65280;BME280;51878;55.748;48.742;2022-07-10T09:25:20;99159.28;;;37.73;28.88
65280;BME280;51878;55.748;48.742;2022-07-10T09:27:51;99141.00;;;33.75;34.09
65280;BME280;51878;55.748;48.742;2022-07-10T09:30:35;99192.91;;;31.75;36.87
65280;BME280;51878;55.748;48.742;2022-07-10T09:33:20;99141.78;;;31.78;36.38
65280;BME280;51878;55.748;48.742;2022-07-10T09:38:56;99188.81;;;33.42;33.78
65280;BME280;51878;55.748;48.742;2022-07-10T09:44:00;99197.81;;;34.26;32.03
65280;BME280;51878;55.748;48.742;2022-07-10T09:46:33;99179.38;;;33.04;33.63
65280;BME280;51878;55.748;48.742;2022-07-10T09:49:11;99164.25;;;34.58;31.90
65280;BME280;51878;55.748;48.742;2022-07-10T09:51:46;99156.84;;;34.04;32.23
65280;BME280;51878;55.748;48.742;2022-07-10T09:54:15;99184.59;;;36.88;28.05
65280;BME280;51878;55.748;48.742;2022-07-10T09:56:48;99151.56;;;36.21;28.87
65280;BME280;51878;55.748;48.742;2022-07-10T09:59:19;99158.03;;;34.52;31.13
65280;BME280;51878;55.748;48.742;2022-07-10T10:01:51;99188.16;;;33.24;33.19
65280;BME280;51878;55.748;48.742;2022-07-10T10:04:20;99153.41;;;32.65;35.00
65280;BME280;51878;55.748;48.742;2022-07-10T10:06:52;99084.34;;;31.45;36.72
65280;BME280;51878;55.748;48.742;2022-07-10T10:12:30;99194.41;;;31.72;37.19
65280;BME280;51878;55.748;48.742;2022-07-10T10:14:58;99183.53;;;30.48;38.23
65280;BME280;51878;55.748;48.742;2022-07-10T10:17:30;99139.13;;;30.91;36.42
65280;BME280;51878;55.748;48.742;2022-07-10T10:19:59;99160.22;;;31.14;37.84
65280;BME280;51878;55.748;48.742;2022-07-10T10:22:48;99036.34;;;30.65;37.87
65280;BME280;51878;55.748;48.742;2022-07-10T10:25:16;99154.13;;;30.95;37.42
65280;BME280;51878;55.748;48.742;2022-07-10T10:27:46;99163.34;;;31.13;36.56
65280;BME280;51878;55.748;48.742;2022-07-10T10:30:13;99161.69;;;30.85;35.25
65280;BME280;51878;55.748;48.742;2022-07-10T10:32:41;99162.16;;;30.70;37.24
65280;BME280;51878;55.748;48.742;2022-07-10T10:35:08;99150.13;;;31.13;36.25
65280;BME280;51878;55.748;48.742;2022-07-10T10:37:38;99152.94;;;31.22;35.34
65280;BME280;51878;55.748;48.742;2022-07-10T10:40:07;99189.34;;;32.21;34.27
65280;BME280;51878;55.748;48.742;2022-07-10T10:42:37;99193.16;;;31.17;38.28
65280;BME280;51878;55.748;48.742;2022-07-10T10:45:23;99184.25;;;31.15;39.26
65280;BME280;51878;55.748;48.742;2022-07-10T10:48:08;99129.38;;;30.04;42.55
65280;BME280;51878;55.748;48.742;2022-07-10T10:51:01;99108.16;;;30.69;40.14
65280;BME280;51878;55.748;48.742;2022-07-10T10:53:29;99087.72;;;30.34;39.90
65280;BME280;51878;55.748;48.742;2022-07-10T10:58:42;99128.75;;;30.82;39.84
65280;BME280;51878;55.748;48.742;2022-07-10T11:06:41;99167.97;;;29.85;41.24
65280;BME280;51878;55.748;48.742;2022-07-10T11:12:04;99140.97;;;32.16;37.41
65280;BME280;51878;55.748;48.742;2022-07-10T11:14:40;99163.31;;;31.47;38.65
65280;BME280;51878;55.748;48.742;2022-07-10T11:17:09;99158.59;;;30.87;39.79
65280;BME280;51878;55.748;48.742;2022-07-10T11:19:37;99148.97;;;30.71;41.53
65280;BME280;51878;55.748;48.742;2022-07-10T11:24:41;99154.28;;;30.98;39.33
65280;BME280;51878;55.748;48.742;2022-07-10T11:27:41;99147.81;;;31.50;37.70
65280;BME280;51878;55.748;48.742;2022-07-10T11:30:17;99125.91;;;30.39;40.29
65280;BME280;51878;55.748;48.742;2022-07-10T11:32:44;99113.38;;;29.79;40.32
65280;BME280;51878;55.748;48.742;2022-07-10T11:35:12;99157.47;;;30.31;39.30
65280;BME280;51878;55.748;48.742;2022-07-10T11:37:52;99148.81;;;30.50;39.32
65280;BME280;51878;55.748;48.742;2022-07-10T11:40:20;99118.03;;;29.92;41.19
65280;BME280;51878;55.748;48.742;2022-07-10T11:42:52;99152.16;;;29.80;40.17
65280;BME280;51878;55.748;48.742;2022-07-10T11:45:23;99169.09;;;30.24;40.06
65280;BME280;51878;55.748;48.742;2022-07-10T11:47:50;99164.81;;;30.18;39.73
65280;BME280;51878;55.748;48.742;2022-07-10T11:50:18;99145.91;;;30.23;39.61
65280;BME280;51878;55.748;48.742;2022-07-10T11:52:48;99165.88;;;30.39;38.72
65280;BME280;51878;55.748;48.742;2022-07-10T11:55:18;99144.19;;;30.54;38.34
65280;BME280;51878;55.748;48.742;2022-07-10T11:57:46;99153.38;;;30.37;38.97
65280;BME280;51878;55.748;48.742;2022-07-10T12:00:26;99155.28;;;30.94;38.02
65280;BME280;51878;55.748;48.742;2022-07-10T12:02:54;99085.13;;;29.27;38.76
65280;BME280;51878;55.748;48.742;2022-07-10T12:07:58;99165.03;;;29.59;39.61
65280;BME280;51878;55.748;48.742;2022-07-10T12:10:29;99138.03;;;28.87;40.50
65280;BME280;51878;55.748;48.742;2022-07-10T12:13:22;99179.03;;;28.77;41.35
65280;BME280;51878;55.748;48.742;2022-07-10T12:15:49;99134.22;;;28.60;41.73
65280;BME280;51878;55.748;48.742;2022-07-10T12:18:18;99093.38;;;28.14;41.13
65280;BME280;51878;55.748;48.742;2022-07-10T12:20:47;99126.00;;;28.77;41.39
65280;BME280;51878;55.748;48.742;2022-07-10T12:23:16;99138.66;;;28.83;40.81
65280;BME280;51878;55.748;48.742;2022-07-10T12:25:44;99161.63;;;28.80;41.30
65280;BME280;51878;55.748;48.742;2022-07-10T12:28:11;99125.72;;;29.55;39.58
65280;BME280;51878;55.748;48.742;2022-07-10T12:30:42;99160.13;;;29.96;39.74
65280;BME280;51878;55.748;48.742;2022-07-10T12:33:23;99106.38;;;29.99;38.93
65280;BME280;51878;55.748;48.742;2022-07-10T12:35:56;99151.94;;;30.74;37.30
65280;BME280;51878;55.748;48.742;2022-07-10T12:38:30;99145.22;;;30.18;36.08
65280;BME280;51878;55.748;48.742;2022-07-10T12:41:06;99153.94;;;31.08;35.98
65280;BME280;51878;55.748;48.742;2022-07-10T12:43:34;99114.25;;;30.63;36.43
65280;BME280;51878;55.748;48.742;2022-07-10T12:46:12;99124.22;;;30.29;35.40
65280;BME280;51878;55.748;48.742;2022-07-10T12:48:39;99139.06;;;30.38;35.14
65280;BME280;51878;55.748;48.742;2022-07-10T12:51:25;99109.44;;;29.89;32.81
65280;BME280;51878;55.748;48.742;2022-07-10T12:53:53;99161.81;;;30.54;34.32
65280;BME280;51878;55.748;48.742;2022-07-10T12:56:31;99117.03;;;30.54;31.29
65280;BME280;51878;55.748;48.742;2022-07-10T12:58:59;99117.25;;;30.18;32.66
65280;BME280;51878;55.748;48.742;2022-07-10T13:01:47;99152.41;;;31.55;31.21
65280;BME280;51878;55.748;48.742;2022-07-10T13:04:14;99115.50;;;31.44;33.50
65280;BME280;51878;55.748;48.742;2022-07-10T13:06:42;99154.44;;;30.93;33.64
65280;BME280;51878;55.748;48.742;2022-07-10T13:09:21;99111.34;;;30.19;35.74
65280;BME280;51878;55.748;48.742;2022-07-10T13:11:50;99151.91;;;29.99;35.89
65280;BME280;51878;55.748;48.742;2022-07-10T13:14:18;99119.41;;;30.21;33.88
65280;BME280;51878;55.748;48.742;2022-07-10T13:16:45;99154.16;;;30.28;33.48
65280;BME280;51878;55.748;48.742;2022-07-10T13:19:12;99104.81;;;29.84;34.22
65280;BME280;51878;55.748;48.742;2022-07-10T13:21:39;99115.41;;;30.04;34.18
65280;BME280;51878;55.748;48.742;2022-07-10T13:24:07;99121.88;;;29.74;34.96
65280;BME280;51878;55.748;48.742;2022-07-10T13:26:34;99150.16;;;30.12;34.51